createdAt,value
2018-03-17T00:00:23.038Z,15.1
2018-03-17T00:01:12.423Z,15.2
2018-03-17T00:02:03.502Z,15.1
2018-03-17T00:02:53.260Z,15.1
2018-03-17T00:03:42.880Z,15.1
2018-03-17T00:04:34.328Z,15.1
2018-03-17T00:05:24.428Z,15.1
2018-03-17T00:06:14.171Z,15.2
2018-03-17T00:07:04.543Z,15.2
2018-03-17T00:07:54.067Z,15.2
2018-03-17T00:08:44.774Z,15.1
2018-03-17T00:09:34.976Z,15.1
2018-03-17T00:10:25.010Z,15.1
2018-03-17T00:11:14.788Z,15.2
2018-03-17T00:12:04.877Z,15.2
2018-03-17T00:12:55.254Z,15.1
2018-03-17T00:13:44.716Z,15.2
2018-03-17T00:14:34.805Z,15.1
2018-03-17T00:15:25.142Z,15.1
2018-03-17T00:16:14.309Z,15.1
2018-03-17T00:17:04.098Z,15.1
2018-03-17T00:17:53.300Z,15.1
2018-03-17T00:18:44.485Z,15.2
2018-03-17T00:19:34.004Z,15.2
2018-03-17T00:20:24.200Z,15.1
2018-03-17T00:21:14.107Z,15.1
2018-03-17T00:22:04.062Z,15.1
2018-03-17T00:22:53.241Z,15.1
2018-03-17T00:23:43.867Z,15.1
2018-03-17T00:24:34.064Z,15.1
2018-03-17T00:25:24.409Z,15.1
2018-03-17T00:26:14.220Z,15.1
2018-03-17T00:27:03.644Z,15.1
2018-03-17T00:27:55.189Z,15.1
2018-03-17T00:28:45.587Z,15.1
2018-03-17T00:29:33.832Z,15.1
2018-03-17T00:30:24.487Z,15.1
2018-03-17T00:31:14.066Z,15.1
2018-03-17T00:32:04.560Z,15.1
2018-03-17T00:32:54.891Z,15.2
2018-03-17T00:33:44.752Z,15.2
2018-03-17T00:34:35.650Z,15.1
2018-03-17T00:35:25.840Z,15.1
2018-03-17T00:36:15.604Z,15.2
2018-03-17T00:37:05.841Z,15.1
2018-03-17T00:37:55.452Z,15.1
2018-03-17T00:38:44.938Z,15.1
2018-03-17T00:39:34.431Z,15.1
2018-03-17T00:40:25.869Z,15.1
2018-03-17T00:41:15.349Z,15.1
2018-03-17T00:42:05.901Z,15.1
2018-03-17T00:42:55.798Z,15.1
2018-03-17T00:43:46.095Z,15.1
2018-03-17T00:44:35.783Z,15.1
2018-03-17T00:45:25.562Z,15.1
2018-03-17T00:46:15.820Z,15.1
2018-03-17T00:47:06.258Z,15.1
2018-03-17T00:47:55.526Z,15.1
2018-03-17T00:48:46.451Z,15.2
2018-03-17T00:49:36.627Z,15.1
2018-03-17T00:50:25.069Z,15.1
2018-03-17T00:51:15.648Z,15.1
2018-03-17T00:52:06.495Z,15.1
2018-03-17T00:52:56.460Z,15.1
2018-03-17T00:53:46.845Z,15.1
2018-03-17T00:54:36.580Z,15.1
2018-03-17T00:55:26.678Z,15.1
2018-03-17T00:56:17.603Z,15.1
2018-03-17T00:57:06.496Z,15.1
2018-03-17T00:57:57.119Z,15.1
2018-03-17T00:58:46.490Z,15.1
2018-03-17T00:59:37.121Z,15.1
2018-03-17T01:00:27.377Z,15.1
2018-03-17T01:01:16.784Z,15.1
2018-03-17T01:02:07.701Z,15.1
2018-03-17T01:02:57.437Z,15.1
2018-03-17T01:03:48.129Z,15.1
2018-03-17T01:04:37.389Z,15.1
2018-03-17T01:05:28.732Z,15.1
2018-03-17T01:06:18.151Z,15.1
2018-03-17T01:07:07.703Z,15.1
2018-03-17T01:07:57.836Z,15.1
2018-03-17T01:08:46.607Z,15.1
2018-03-17T01:09:37.832Z,15.1
2018-03-17T01:10:28.172Z,15.1
2018-03-17T01:11:18.252Z,15.1
2018-03-17T01:12:06.929Z,15.1
2018-03-17T01:12:58.288Z,15.1
2018-03-17T01:13:47.839Z,15.2
2018-03-17T01:14:37.602Z,15.1
2018-03-17T01:15:28.357Z,15.1
2018-03-17T01:16:18.436Z,15.1
2018-03-17T01:17:08.568Z,15.1
2018-03-17T01:17:58.136Z,15.1
2018-03-17T01:18:47.791Z,15.1
2018-03-17T01:19:38.542Z,15.1
2018-03-17T01:20:27.512Z,15.1
2018-03-17T01:21:17.931Z,15.1
2018-03-17T01:22:06.568Z,15.1
2018-03-17T01:22:58.563Z,15.1
2018-03-17T01:23:48.136Z,15.1
2018-03-17T01:24:38.868Z,15.1
2018-03-17T01:25:29.231Z,15.1
2018-03-17T01:26:18.713Z,15.1
2018-03-17T01:27:08.021Z,15.1
2018-03-17T01:27:59.112Z,15.1
2018-03-17T01:28:48.469Z,15.1
2018-03-17T01:29:37.236Z,15.1
2018-03-17T01:30:29.155Z,15.1
2018-03-17T01:31:19.221Z,15.1
2018-03-17T01:32:08.453Z,15.1
2018-03-17T01:32:59.592Z,15.1
2018-03-17T01:33:48.858Z,15.1
2018-03-17T01:34:38.834Z,15.1
2018-03-17T01:35:30.323Z,15.1
2018-03-17T01:36:18.541Z,15.1
2018-03-17T01:37:08.211Z,15.1
2018-03-17T01:37:59.498Z,15.1
2018-03-17T01:38:50.201Z,15.1
2018-03-17T01:39:39.956Z,15.1
2018-03-17T01:40:29.276Z,15.1
2018-03-17T01:41:20.197Z,15.1
2018-03-17T01:42:10.440Z,15.1
2018-03-17T01:43:00.283Z,15.1
2018-03-17T01:43:50.465Z,15.1
2018-03-17T01:44:40.128Z,15.1
2018-03-17T01:45:29.801Z,15.1
2018-03-17T01:46:20.521Z,15.1
2018-03-17T01:47:10.875Z,15.1
2018-03-17T01:48:00.867Z,15.1
2018-03-17T01:48:49.367Z,15.1
2018-03-17T01:49:42.045Z,15.1
2018-03-17T01:50:31.837Z,15.1
2018-03-17T01:51:22.279Z,15.1
2018-03-17T01:52:11.409Z,15.1
2018-03-17T01:53:02.310Z,15.1
2018-03-17T01:53:52.152Z,15.1
2018-03-17T01:54:41.531Z,15.1
2018-03-17T01:55:32.166Z,15.1
2018-03-17T01:56:22.099Z,15.1
2018-03-17T01:57:12.066Z,15.1
2018-03-17T01:58:02.666Z,15.1
2018-03-17T01:58:51.829Z,15.1
2018-03-17T01:59:42.471Z,15.1
2018-03-17T02:00:31.956Z,15.1
2018-03-17T02:01:21.787Z,15.1
2018-03-17T02:02:12.649Z,15.1
2018-03-17T02:03:02.430Z,15.1
2018-03-17T02:03:53.048Z,15.1
2018-03-17T02:04:42.329Z,15.1
2018-03-17T02:05:33.194Z,15.1
2018-03-17T02:06:22.939Z,15.1
2018-03-17T02:07:13.339Z,15.1
2018-03-17T02:08:02.289Z,15.1
2018-03-17T02:08:53.147Z,15.1
2018-03-17T02:09:42.746Z,15.1
2018-03-17T02:10:33.504Z,15.1
2018-03-17T02:11:22.548Z,15.1
2018-03-17T02:12:13.061Z,15.1
2018-03-17T02:13:03.198Z,15.1
2018-03-17T02:13:53.513Z,15.1
2018-03-17T02:14:43.848Z,15.1
2018-03-17T02:15:32.818Z,15.1
2018-03-17T02:16:23.431Z,15.1
2018-03-17T02:17:12.435Z,15.1
2018-03-17T02:18:03.321Z,15.1
2018-03-17T02:18:53.546Z,15.1
2018-03-17T02:19:41.931Z,15.1
2018-03-17T02:20:32.543Z,15.1
2018-03-17T02:21:21.929Z,15.1
2018-03-17T02:22:12.488Z,15.1
2018-03-17T02:23:02.748Z,15.1
2018-03-17T02:23:52.226Z,15.1
2018-03-17T02:24:42.505Z,15.1
2018-03-17T02:25:32.048Z,15.1
2018-03-17T02:26:22.121Z,15.1
2018-03-17T02:27:11.583Z,15.1
2018-03-17T02:28:03.657Z,15.1
2018-03-17T02:28:54.269Z,15.1
2018-03-17T02:29:43.831Z,15.1
2018-03-17T02:30:34.443Z,15.1
2018-03-17T02:31:23.726Z,15.1
2018-03-17T02:32:14.278Z,15.1
2018-03-17T02:33:04.143Z,15.1
2018-03-17T02:33:54.509Z,15.1
2018-03-17T02:34:44.375Z,15.1
2018-03-17T02:35:34.637Z,15.1
2018-03-17T02:36:24.864Z,15.1
2018-03-17T02:37:14.729Z,15.1
2018-03-17T02:38:04.459Z,15.1
2018-03-17T02:38:54.826Z,15.1
2018-03-17T02:39:45.163Z,15.1
2018-03-17T02:40:34.925Z,15.1
2018-03-17T02:41:24.736Z,15.1
2018-03-17T02:42:14.764Z,15.1
2018-03-17T02:43:05.175Z,15.1
2018-03-17T02:43:55.124Z,15.1
2018-03-17T02:44:45.028Z,15.1
2018-03-17T02:45:35.277Z,15.1
2018-03-17T02:46:25.449Z,15.1
2018-03-17T02:47:15.148Z,15.1
2018-03-17T02:48:04.915Z,15.1
2018-03-17T02:48:55.574Z,15.1
2018-03-17T02:49:44.584Z,15.1
2018-03-17T02:50:35.628Z,15.1
2018-03-17T02:51:26.045Z,15.1
2018-03-17T02:52:16.027Z,15.1
2018-03-17T02:53:05.798Z,15.1
2018-03-17T02:53:54.768Z,15.1
2018-03-17T02:54:45.661Z,15.1
2018-03-17T02:55:35.492Z,15.1
2018-03-17T02:56:25.836Z,15.1
2018-03-17T02:57:15.565Z,15.1
2018-03-17T02:58:05.931Z,15.1
2018-03-17T02:58:55.680Z,15.1
2018-03-17T02:59:46.013Z,15.1
2018-03-17T03:00:35.873Z,15.1
2018-03-17T03:01:26.651Z,15.1
2018-03-17T03:02:15.891Z,15.1
2018-03-17T03:03:06.797Z,15.1
2018-03-17T03:03:56.595Z,15.1
2018-03-17T03:04:46.644Z,15.1
2018-03-17T03:05:36.238Z,15.1
2018-03-17T03:06:25.940Z,15.1
2018-03-17T03:07:16.555Z,15.1
2018-03-17T03:08:06.602Z,15.1
2018-03-17T03:08:56.653Z,15.1
2018-03-17T03:09:47.051Z,15.1
2018-03-17T03:10:36.305Z,15.1
2018-03-17T03:11:26.789Z,15.1
2018-03-17T03:12:16.314Z,15.1
2018-03-17T03:13:07.502Z,15.1
2018-03-17T03:13:56.416Z,15.1
2018-03-17T03:14:46.763Z,15.1
2018-03-17T03:15:37.635Z,15.1
2018-03-17T03:16:27.239Z,15.1
2018-03-17T03:17:17.534Z,15.1
2018-03-17T03:18:07.303Z,15.1
2018-03-17T03:18:57.900Z,15.1
2018-03-17T03:19:47.410Z,15.1
2018-03-17T03:20:37.699Z,15.1
2018-03-17T03:21:27.560Z,15.1
2018-03-17T03:22:17.860Z,15.1
2018-03-17T03:23:07.344Z,15.1
2018-03-17T03:23:58.245Z,15.1
2018-03-17T03:24:47.547Z,15.1
2018-03-17T03:25:37.788Z,15.1
2018-03-17T03:26:26.863Z,15.1
2018-03-17T03:27:16.622Z,15.1
2018-03-17T03:28:06.199Z,15.1
2018-03-17T03:28:57.481Z,15.1
2018-03-17T03:29:47.579Z,15.1
2018-03-17T03:30:36.467Z,15.1
2018-03-17T03:31:26.824Z,15.1
2018-03-17T03:32:17.442Z,15.1
2018-03-17T03:33:07.284Z,15.1
2018-03-17T03:33:56.602Z,15.1
2018-03-17T03:34:46.826Z,15.1
2018-03-17T03:35:38.306Z,15.1
2018-03-17T03:36:28.246Z,15.1
2018-03-17T03:37:17.529Z,15.1
2018-03-17T03:38:08.558Z,15.1
2018-03-17T03:38:57.354Z,15.1
2018-03-17T03:39:48.269Z,15.1
2018-03-17T03:40:37.549Z,15.1
2018-03-17T03:41:28.012Z,15.1
2018-03-17T03:42:17.484Z,15.1
2018-03-17T03:43:07.227Z,15.1
2018-03-17T03:43:58.354Z,15.1
2018-03-17T03:44:47.011Z,15.1
2018-03-17T03:45:37.881Z,15.1
2018-03-17T03:46:29.098Z,15.1
2018-03-17T03:47:18.206Z,15
2018-03-17T03:48:09.470Z,15.1
2018-03-17T03:48:59.541Z,15.1
2018-03-17T03:49:49.493Z,15.1
2018-03-17T03:50:39.914Z,15.1
2018-03-17T03:51:29.063Z,15.1
2018-03-17T03:52:19.469Z,15.1
2018-03-17T03:53:10.099Z,15.1
2018-03-17T03:53:59.531Z,15.1
2018-03-17T03:54:49.296Z,15.1
2018-03-17T03:55:40.233Z,15.1
2018-03-17T03:56:30.311Z,15.1
2018-03-17T03:57:19.754Z,15.1
2018-03-17T03:58:10.098Z,15.1
2018-03-17T03:59:00.717Z,15.1
2018-03-17T03:59:50.471Z,15.1
2018-03-17T04:00:40.891Z,15.1
2018-03-17T04:01:30.212Z,15.1
2018-03-17T04:02:19.397Z,15.1
2018-03-17T04:03:08.955Z,15.1
2018-03-17T04:04:00.272Z,15.1
2018-03-17T04:04:49.994Z,15.1
2018-03-17T04:05:38.460Z,15.1
2018-03-17T04:06:29.867Z,15.1
2018-03-17T04:07:19.175Z,15.1
2018-03-17T04:08:08.907Z,15.1
2018-03-17T04:09:00.205Z,15.1
2018-03-17T04:09:50.504Z,15.1
2018-03-17T04:10:39.064Z,15
2018-03-17T04:11:29.672Z,15
2018-03-17T04:12:19.979Z,15.1
2018-03-17T04:13:10.224Z,15.1
2018-03-17T04:13:59.910Z,15.1
2018-03-17T04:14:49.320Z,15.1
2018-03-17T04:15:40.039Z,15.1
2018-03-17T04:16:31.169Z,15
2018-03-17T04:17:20.654Z,15.1
2018-03-17T04:18:11.873Z,15
2018-03-17T04:19:02.130Z,15.1
2018-03-17T04:19:51.622Z,15.1
2018-03-17T04:20:41.466Z,15
2018-03-17T04:21:32.021Z,15
2018-03-17T04:22:21.590Z,15.1
2018-03-17T04:23:12.446Z,15.1
2018-03-17T04:24:01.643Z,15.1
2018-03-17T04:24:51.529Z,15
2018-03-17T04:25:41.855Z,15
2018-03-17T04:26:32.096Z,15.1
2018-03-17T04:27:21.940Z,15.1
2018-03-17T04:28:11.704Z,15
2018-03-17T04:29:02.021Z,15.1
2018-03-17T04:29:51.344Z,15
2018-03-17T04:30:41.458Z,15
2018-03-17T04:31:30.211Z,15
2018-03-17T04:32:21.338Z,15
2018-03-17T04:33:11.754Z,15
2018-03-17T04:34:00.178Z,15
2018-03-17T04:34:51.861Z,15
2018-03-17T04:35:41.628Z,15
2018-03-17T04:36:30.828Z,15
2018-03-17T04:37:22.314Z,15
2018-03-17T04:38:12.161Z,15
2018-03-17T04:39:02.244Z,15
2018-03-17T04:39:52.775Z,15
2018-03-17T04:40:43.130Z,15.1
2018-03-17T04:41:33.214Z,15
2018-03-17T04:42:22.960Z,15
2018-03-17T04:43:11.693Z,15
2018-03-17T04:44:01.973Z,15
2018-03-17T04:44:52.865Z,15.1
2018-03-17T04:45:41.903Z,15
2018-03-17T04:46:33.279Z,15
2018-03-17T04:47:22.458Z,15
2018-03-17T04:48:11.412Z,15
2018-03-17T04:49:02.611Z,15.1
2018-03-17T04:49:52.321Z,15
2018-03-17T04:50:42.917Z,15.1
2018-03-17T04:51:31.919Z,15
2018-03-17T04:52:24.125Z,15
2018-03-17T04:53:12.225Z,15
2018-03-17T04:54:03.627Z,15
2018-03-17T04:54:52.734Z,15
2018-03-17T04:55:42.479Z,15
2018-03-17T04:56:32.553Z,15
2018-03-17T04:57:23.007Z,15.1
2018-03-17T04:58:14.107Z,15
2018-03-17T04:59:03.989Z,15
2018-03-17T04:59:52.782Z,15
2018-03-17T05:00:43.319Z,15
2018-03-17T05:01:33.776Z,15
2018-03-17T05:02:23.721Z,15
2018-03-17T05:03:12.810Z,15
2018-03-17T05:04:03.137Z,15
2018-03-17T05:04:53.403Z,15
2018-03-17T05:05:44.143Z,15
2018-03-17T05:06:33.165Z,15
2018-03-17T05:07:24.755Z,15
2018-03-17T05:08:14.060Z,15
2018-03-17T05:09:03.931Z,15
2018-03-17T05:09:53.973Z,15
2018-03-17T05:10:43.336Z,15
2018-03-17T05:11:33.666Z,15
2018-03-17T05:12:23.648Z,15
2018-03-17T05:13:13.746Z,15
2018-03-17T05:14:04.475Z,15
2018-03-17T05:14:54.298Z,15
2018-03-17T05:15:44.455Z,15
2018-03-17T05:16:34.095Z,15
2018-03-17T05:17:24.703Z,15
2018-03-17T05:18:13.713Z,15
2018-03-17T05:19:03.560Z,15
2018-03-17T05:19:54.000Z,15
2018-03-17T05:20:44.497Z,15
2018-03-17T05:21:34.547Z,15
2018-03-17T05:22:25.189Z,15
2018-03-17T05:23:14.930Z,15
2018-03-17T05:24:05.268Z,15
2018-03-17T05:24:55.930Z,15
2018-03-17T05:25:44.920Z,15
2018-03-17T05:26:35.348Z,15
2018-03-17T05:27:25.710Z,14.9
2018-03-17T05:28:15.280Z,15
2018-03-17T05:29:05.126Z,15
2018-03-17T05:29:54.892Z,15
2018-03-17T05:30:46.121Z,15
2018-03-17T05:31:35.229Z,15
2018-03-17T05:32:25.749Z,15
2018-03-17T05:33:15.586Z,15
2018-03-17T05:34:06.129Z,15
2018-03-17T05:34:54.684Z,15
2018-03-17T05:35:46.151Z,15
2018-03-17T05:36:36.341Z,15
2018-03-17T05:37:25.021Z,15
2018-03-17T05:38:15.421Z,15
2018-03-17T05:39:06.084Z,15
2018-03-17T05:39:56.149Z,14.9
2018-03-17T05:40:45.861Z,14.9
2018-03-17T05:41:36.181Z,15
2018-03-17T05:42:25.643Z,15
2018-03-17T05:43:15.058Z,15
2018-03-17T05:44:06.355Z,15
2018-03-17T05:44:56.540Z,15
2018-03-17T05:45:46.398Z,15
2018-03-17T05:46:36.696Z,15
2018-03-17T05:47:26.634Z,14.9
2018-03-17T05:48:16.398Z,15
2018-03-17T05:49:06.196Z,14.9
2018-03-17T05:49:57.070Z,15
2018-03-17T05:50:46.475Z,14.9
2018-03-17T05:51:35.759Z,15
2018-03-17T05:52:27.352Z,15
2018-03-17T05:53:17.688Z,15
2018-03-17T05:54:07.889Z,15
2018-03-17T05:54:57.446Z,15
2018-03-17T05:55:46.949Z,15
2018-03-17T05:56:37.378Z,15
2018-03-17T05:57:27.525Z,15
2018-03-17T05:58:16.208Z,15
2018-03-17T05:59:07.351Z,15
2018-03-17T05:59:56.866Z,15
2018-03-17T06:00:47.588Z,15
2018-03-17T06:01:36.912Z,15
2018-03-17T06:02:28.080Z,15
2018-03-17T06:03:18.391Z,15
2018-03-17T06:04:08.530Z,15
2018-03-17T06:04:58.102Z,15
2018-03-17T06:05:48.602Z,15
2018-03-17T06:06:37.488Z,15
2018-03-17T06:07:28.607Z,15
2018-03-17T06:08:18.600Z,15
2018-03-17T06:09:07.378Z,15
2018-03-17T06:09:58.350Z,15
2018-03-17T06:10:48.646Z,15.1
2018-03-17T06:11:38.138Z,15
2018-03-17T06:12:29.280Z,15
2018-03-17T06:13:17.630Z,15.1
2018-03-17T06:14:08.885Z,15
2018-03-17T06:14:59.164Z,15
2018-03-17T06:15:48.037Z,15
2018-03-17T06:16:38.250Z,15.1
2018-03-17T06:17:28.346Z,15
2018-03-17T06:18:19.004Z,15.1
2018-03-17T06:19:08.999Z,15.1
2018-03-17T06:19:58.749Z,15.1
2018-03-17T06:20:49.409Z,15
2018-03-17T06:21:38.489Z,15
2018-03-17T06:22:27.944Z,15.1
2018-03-17T06:23:19.101Z,15.1
2018-03-17T06:24:09.932Z,15.1
2018-03-17T06:25:00.511Z,15.1
2018-03-17T06:25:50.878Z,15.1
2018-03-17T06:26:40.964Z,15.1
2018-03-17T06:27:30.753Z,15.1
2018-03-17T06:28:21.370Z,15.1
2018-03-17T06:29:09.999Z,15.1
2018-03-17T06:30:00.425Z,15.1
2018-03-17T06:30:49.799Z,15.1
2018-03-17T06:31:38.482Z,15.1
2018-03-17T06:32:30.144Z,15.1
2018-03-17T06:33:19.586Z,15.1
2018-03-17T06:34:10.200Z,15.1
2018-03-17T06:35:00.323Z,15.1
2018-03-17T06:35:50.139Z,15.1
2018-03-17T06:36:40.878Z,15.1
2018-03-17T06:37:30.328Z,15.1
2018-03-17T06:38:19.999Z,15.1
2018-03-17T06:39:10.511Z,15.1
2018-03-17T06:40:00.724Z,15.1
2018-03-17T06:40:50.138Z,15.1
2018-03-17T06:41:41.552Z,15.1
2018-03-17T06:42:30.748Z,15.1
2018-03-17T06:43:20.335Z,15.1
2018-03-17T06:44:10.871Z,15.1
2018-03-17T06:45:01.723Z,15.1
2018-03-17T06:45:50.868Z,15.1
2018-03-17T06:46:40.693Z,15.1
2018-03-17T06:47:31.072Z,15.1
2018-03-17T06:48:22.002Z,15.1
2018-03-17T06:49:11.998Z,15.1
2018-03-17T06:50:00.576Z,15.1
2018-03-17T06:50:50.615Z,15.1
2018-03-17T06:51:42.923Z,15.1
2018-03-17T06:52:33.487Z,15.1
2018-03-17T06:53:23.650Z,15.1
2018-03-17T06:54:12.198Z,15.2
2018-03-17T06:55:02.882Z,15.1
2018-03-17T06:55:53.789Z,15.2
2018-03-17T06:56:43.521Z,15.1
2018-03-17T06:57:33.844Z,15.2
2018-03-17T06:58:23.976Z,15.2
2018-03-17T06:59:13.705Z,15.1
2018-03-17T07:00:04.079Z,15.2
2018-03-17T07:00:53.502Z,15.2
2018-03-17T07:01:43.064Z,15.2
2018-03-17T07:02:33.129Z,15.2
2018-03-17T07:03:22.227Z,15.2
2018-03-17T07:04:13.235Z,15.2
2018-03-17T07:05:02.904Z,15.2
2018-03-17T07:05:53.179Z,15.2
2018-03-17T07:06:42.157Z,15.2
2018-03-17T07:07:32.783Z,15.2
2018-03-17T07:08:22.814Z,15.2
2018-03-17T07:09:12.625Z,15.2
2018-03-17T07:10:03.020Z,15.2
2018-03-17T07:10:53.033Z,15.2
2018-03-17T07:11:42.887Z,15.2
2018-03-17T07:12:32.387Z,15.2
2018-03-17T07:13:23.399Z,15.2
2018-03-17T07:14:12.884Z,15.3
2018-03-17T07:15:03.605Z,15.3
2018-03-17T07:15:53.203Z,15.3
2018-03-17T07:16:43.510Z,15.3
2018-03-17T07:17:34.316Z,15.3
2018-03-17T07:18:22.918Z,15.3
2018-03-17T07:19:14.172Z,15.3
2018-03-17T07:20:04.176Z,15.3
2018-03-17T07:20:54.129Z,15.3
2018-03-17T07:21:44.790Z,15.3
2018-03-17T07:22:34.365Z,15.3
2018-03-17T07:23:24.213Z,15.3
2018-03-17T07:24:14.391Z,15.3
2018-03-17T07:25:04.046Z,15.3
2018-03-17T07:25:54.206Z,15.3
2018-03-17T07:26:43.446Z,15.3
2018-03-17T07:27:33.813Z,15.4
2018-03-17T07:28:24.059Z,15.3
2018-03-17T07:29:13.750Z,15.4
2018-03-17T07:30:05.090Z,15.4
2018-03-17T07:30:54.835Z,15.4
2018-03-17T07:31:44.011Z,15.4
2018-03-17T07:32:34.242Z,15.4
2018-03-17T07:33:24.434Z,15.4
2018-03-17T07:34:14.888Z,15.5
2018-03-17T07:35:05.491Z,15.5
2018-03-17T07:35:55.047Z,15.5
2018-03-17T07:36:45.292Z,15.6
2018-03-17T07:37:34.930Z,15.6
2018-03-17T07:38:24.777Z,15.6
2018-03-17T07:39:15.013Z,15.6
2018-03-17T07:40:05.003Z,15.6
2018-03-17T07:40:55.731Z,15.6
2018-03-17T07:41:44.559Z,15.6
2018-03-17T07:42:36.164Z,15.6
2018-03-17T07:43:26.317Z,15.6
2018-03-17T07:44:15.315Z,15.6
2018-03-17T07:45:05.760Z,15.7
2018-03-17T07:45:56.089Z,15.7
2018-03-17T07:46:46.197Z,15.7
2018-03-17T07:47:36.327Z,15.8
2018-03-17T07:48:26.030Z,15.8
2018-03-17T07:49:15.336Z,15.8
2018-03-17T07:50:05.252Z,15.8
2018-03-17T07:50:56.052Z,15.8
2018-03-17T07:51:45.654Z,15.8
2018-03-17T07:52:36.703Z,15.8
2018-03-17T07:53:27.365Z,15.8
2018-03-17T07:54:16.710Z,15.9
2018-03-17T07:55:06.093Z,15.9
2018-03-17T07:55:57.534Z,15.9
2018-03-17T07:56:47.118Z,15.9
2018-03-17T07:57:36.821Z,15.9
2018-03-17T07:58:27.787Z,15.9
2018-03-17T07:59:17.134Z,16
2018-03-17T08:00:07.769Z,16
2018-03-17T08:00:58.473Z,16
2018-03-17T08:01:47.009Z,16
2018-03-17T08:02:36.222Z,16
2018-03-17T08:03:27.535Z,16.1
2018-03-17T08:04:16.302Z,16.1
2018-03-17T08:05:06.332Z,16.1
2018-03-17T08:05:56.141Z,16.1
2018-03-17T08:06:47.407Z,16.1
2018-03-17T08:07:36.399Z,16.1
2018-03-17T08:08:26.929Z,16.2
2018-03-17T08:09:16.709Z,16.2
2018-03-17T08:10:07.053Z,16.2
2018-03-17T08:10:56.954Z,16.2
2018-03-17T08:11:47.466Z,16.3
2018-03-17T08:12:37.778Z,16.3
2018-03-17T08:13:26.859Z,16.3
2018-03-17T08:14:18.270Z,16.3
2018-03-17T08:15:08.462Z,16.3
2018-03-17T08:15:57.126Z,16.4
2018-03-17T08:16:48.620Z,16.3
2018-03-17T08:17:39.360Z,16.4
2018-03-17T08:18:29.050Z,16.4
2018-03-17T08:19:18.395Z,16.4
2018-03-17T08:20:09.232Z,16.4
2018-03-17T08:20:59.305Z,16.4
2018-03-17T08:21:49.376Z,16.4
2018-03-17T08:22:39.978Z,16.4
2018-03-17T08:23:29.748Z,16.4
2018-03-17T08:24:19.295Z,16.4
2018-03-17T08:25:09.033Z,16.4
2018-03-17T08:25:59.936Z,16.4
2018-03-17T08:26:49.693Z,16.5
2018-03-17T08:27:40.742Z,16.5
2018-03-17T08:28:30.362Z,16.6
2018-03-17T08:29:18.048Z,16.6
2018-03-17T08:30:09.381Z,16.5
2018-03-17T08:30:58.557Z,16.6
2018-03-17T08:31:48.595Z,16.6
2018-03-17T08:32:38.760Z,16.6
2018-03-17T08:33:29.654Z,16.6
2018-03-17T08:34:18.858Z,16.6
2018-03-17T08:35:08.898Z,16.6
2018-03-17T08:35:59.960Z,16.6
2018-03-17T08:36:49.585Z,16.6
2018-03-17T08:37:38.162Z,16.6
2018-03-17T08:38:29.702Z,16.6
2018-03-17T08:39:19.062Z,16.6
2018-03-17T08:40:08.584Z,16.6
2018-03-17T08:41:00.099Z,16.5
2018-03-17T08:41:50.112Z,16.4
2018-03-17T08:42:40.264Z,16.5
2018-03-17T08:43:29.472Z,16.6
2018-03-17T08:44:19.797Z,16.6
2018-03-17T08:45:10.415Z,16.6
2018-03-17T08:45:59.646Z,16.6
2018-03-17T08:46:49.671Z,16.6
2018-03-17T08:47:41.176Z,16.6
2018-03-17T08:48:30.089Z,16.6
2018-03-17T08:49:20.267Z,16.5
2018-03-17T08:50:10.029Z,16.5
2018-03-17T08:51:00.392Z,16.6
2018-03-17T08:51:51.506Z,16.5
2018-03-17T08:52:40.549Z,16.6
2018-03-17T08:53:31.117Z,16.6
2018-03-17T08:54:20.803Z,16.6
2018-03-17T08:55:09.871Z,16.6
2018-03-17T08:56:01.126Z,16.6
2018-03-17T08:56:49.909Z,16.6
2018-03-17T08:57:40.669Z,16.6
2018-03-17T08:58:30.099Z,16.7
2018-03-17T08:59:20.396Z,16.7
2018-03-17T09:00:11.020Z,16.8
2018-03-17T09:01:01.297Z,16.8
2018-03-17T09:01:50.555Z,16.7
2018-03-17T09:02:40.883Z,16.8
2018-03-17T09:03:31.798Z,16.7
2018-03-17T09:04:21.413Z,16.8
2018-03-17T09:05:11.743Z,16.9
2018-03-17T09:07:42.397Z,17.1
2018-03-17T09:08:32.190Z,17.1
2018-03-17T09:09:22.593Z,17.1
2018-03-17T09:10:12.886Z,17.1
2018-03-17T09:11:02.866Z,17.1
2018-03-17T09:11:52.072Z,17.1
2018-03-17T09:12:41.314Z,17.1
2018-03-17T09:13:33.101Z,17.1
2018-03-17T09:14:22.908Z,17.1
2018-03-17T09:16:52.778Z,16.9
2018-03-17T09:17:43.669Z,16.8
2018-03-17T09:18:33.462Z,16.8
2018-03-17T09:19:23.993Z,16.8
2018-03-17T09:20:14.128Z,16.8
2018-03-17T09:21:03.618Z,16.8
2018-03-17T09:21:54.197Z,16.8
2018-03-17T09:22:42.488Z,16.8
2018-03-17T09:23:32.788Z,16.8
2018-03-17T09:24:22.177Z,16.7
2018-03-17T09:25:12.341Z,16.8
2018-03-17T09:26:03.127Z,16.7
2018-03-17T09:26:52.576Z,16.8
2018-03-17T09:27:42.572Z,16.7
2018-03-17T09:28:32.840Z,16.8
2018-03-17T09:29:23.759Z,16.7
2018-03-17T09:30:12.260Z,16.7
2018-03-17T09:31:03.593Z,16.8
2018-03-17T09:31:52.849Z,16.8
2018-03-17T09:32:42.042Z,16.8
2018-03-17T09:33:33.341Z,16.8
2018-03-17T09:34:24.019Z,16.8
2018-03-17T09:35:13.880Z,16.8
2018-03-17T09:36:03.451Z,16.8
2018-03-17T09:36:54.294Z,16.8
2018-03-17T09:37:43.499Z,16.7
2018-03-17T09:38:33.253Z,16.7
2018-03-17T09:39:23.679Z,16.7
2018-03-17T09:40:12.287Z,16.6
2018-03-17T09:41:03.626Z,16.7
2018-03-17T09:41:53.979Z,16.7
2018-03-17T09:42:44.217Z,16.7
2018-03-17T09:43:34.744Z,16.7
2018-03-17T09:44:23.946Z,16.6
2018-03-17T09:45:15.065Z,16.7
2018-03-17T09:46:03.808Z,16.7
2018-03-17T09:46:52.950Z,16.7
2018-03-17T09:47:44.518Z,16.8
2018-03-17T09:48:34.110Z,16.8
2018-03-17T09:49:23.805Z,16.8
2018-03-17T09:50:14.391Z,16.8
2018-03-17T09:51:04.495Z,16.8
2018-03-17T09:51:54.440Z,16.8
2018-03-17T09:52:44.953Z,16.8
2018-03-17T09:53:34.513Z,16.8
2018-03-17T09:54:24.485Z,16.8
2018-03-17T09:55:14.803Z,16.8
2018-03-17T09:56:04.788Z,16.8
2018-03-17T09:56:54.632Z,16.8
2018-03-17T09:57:45.525Z,16.8
2018-03-17T09:58:34.675Z,16.8
2018-03-17T09:59:26.175Z,16.8
2018-03-17T10:00:14.680Z,16.8
2018-03-17T10:01:04.475Z,16.8
2018-03-17T10:01:55.601Z,16.8
2018-03-17T10:02:45.180Z,16.8
2018-03-17T10:03:37.058Z,16.8
2018-03-17T10:04:26.220Z,16.8
2018-03-17T10:05:15.662Z,16.8
2018-03-17T10:06:04.937Z,16.8
2018-03-17T10:06:55.557Z,16.9
2018-03-17T10:07:45.945Z,16.9
2018-03-17T10:08:35.579Z,16.9
2018-03-17T10:09:26.354Z,16.9
2018-03-17T10:10:16.956Z,16.9
2018-03-17T10:14:27.219Z,16.9
2018-03-17T10:16:56.222Z,16.9
2018-03-17T10:18:36.627Z,16.9
2018-03-17T10:19:26.499Z,16.9
2018-03-17T10:20:16.740Z,16.9
2018-03-17T10:21:06.499Z,16.9
2018-03-17T10:21:56.554Z,16.9
2018-03-17T10:22:47.649Z,16.9
2018-03-17T10:23:37.235Z,16.9
2018-03-17T10:24:27.055Z,16.9
2018-03-17T10:25:16.614Z,16.9
2018-03-17T10:26:07.557Z,16.9
2018-03-17T10:26:57.409Z,16.9
2018-03-17T10:27:46.124Z,16.9
2018-03-17T10:28:37.284Z,16.9
2018-03-17T10:29:27.686Z,16.9
2018-03-17T10:30:17.353Z,16.9
2018-03-17T10:31:07.138Z,16.9
2018-03-17T10:31:57.370Z,16.9
2018-03-17T10:32:47.666Z,16.9
2018-03-17T10:33:36.841Z,16.9
2018-03-17T10:34:27.590Z,16.9
2018-03-17T10:35:19.413Z,16.9
2018-03-17T10:37:48.193Z,17.1
2018-03-17T10:38:38.605Z,17.1
2018-03-17T10:39:27.837Z,17.1
2018-03-17T10:40:17.623Z,17.1
2018-03-17T10:41:08.048Z,17.2
2018-03-17T10:41:58.302Z,17.1
2018-03-17T10:42:48.558Z,17.1
2018-03-17T10:43:38.019Z,17.1
2018-03-17T10:44:28.600Z,17.1
2018-03-17T10:45:18.663Z,17.1
2018-03-17T10:46:08.615Z,17.1
2018-03-17T10:46:57.982Z,17.1
2018-03-17T10:47:49.119Z,17.1
2018-03-17T10:48:38.305Z,17.2
2018-03-17T10:49:28.570Z,17.2
2018-03-17T10:50:19.216Z,17.2
2018-03-17T10:51:09.369Z,17.1
2018-03-17T10:51:58.452Z,17.2
2018-03-17T10:52:49.334Z,17.2
2018-03-17T10:53:39.262Z,17.2
2018-03-17T10:54:29.326Z,17.2
2018-03-17T10:55:19.614Z,17.3
2018-03-17T10:56:09.162Z,17.3
2018-03-17T10:56:59.954Z,17.3
2018-03-17T10:57:48.926Z,17.3
2018-03-17T10:58:38.831Z,17.3
2018-03-17T10:59:28.572Z,17.3
2018-03-17T11:00:19.477Z,17.3
2018-03-17T11:01:09.821Z,17.4
2018-03-17T11:01:59.634Z,17.4
2018-03-17T11:02:49.828Z,17.4
2018-03-17T11:03:40.757Z,17.4
2018-03-17T11:04:30.683Z,17.4
2018-03-17T11:05:19.374Z,17.4
2018-03-17T11:06:11.713Z,17.4
2018-03-17T11:07:00.981Z,17.5
2018-03-17T11:07:50.292Z,17.6
2018-03-17T11:08:39.647Z,17.6
2018-03-17T11:09:30.306Z,17.6
2018-03-17T11:10:21.166Z,17.6
2018-03-17T11:11:10.807Z,17.6
2018-03-17T11:12:00.291Z,17.7
2018-03-17T11:12:50.508Z,17.7
2018-03-17T11:13:40.696Z,17.7
2018-03-17T11:14:30.436Z,17.7
2018-03-17T11:15:20.333Z,17.8
2018-03-17T11:16:11.176Z,17.8
2018-03-17T11:17:02.118Z,17.8
2018-03-17T11:17:50.785Z,17.8
2018-03-17T11:18:40.926Z,17.8
2018-03-17T11:19:30.718Z,17.9
2018-03-17T11:20:21.681Z,17.8
2018-03-17T11:21:12.085Z,17.9
2018-03-17T11:22:02.948Z,17.8
2018-03-17T11:22:53.134Z,17.9
2018-03-17T11:23:42.452Z,17.9
2018-03-17T11:24:32.900Z,17.9